createdAt,value
2022-08-28T00:01:05.344Z,4.90
2022-08-28T00:03:32.813Z,5.43
2022-08-28T00:06:00.266Z,6.20
2022-08-28T00:08:27.458Z,6.22
2022-08-28T00:10:54.347Z,5.85
2022-08-28T00:13:25.498Z,5.88
2022-08-28T00:15:58.251Z,6.95
2022-08-28T00:18:26.464Z,7.97
2022-08-28T00:20:54.269Z,5.15
2022-08-28T00:23:21.879Z,5.60
2022-08-28T00:25:48.909Z,6.25
2022-08-28T00:28:24.369Z,5.82
2022-08-28T00:30:55.325Z,6.00
2022-08-28T00:33:33.010Z,6.50
2022-08-28T00:36:01.075Z,5.45
2022-08-28T00:38:29.579Z,6.25
2022-08-28T00:41:03.824Z,6.47
2022-08-28T00:43:49.926Z,6.25
2022-08-28T00:46:24.128Z,5.57
2022-08-28T00:48:51.226Z,5.53
2022-08-28T00:51:38.594Z,5.25
2022-08-28T00:54:08.252Z,7.35
2022-08-28T00:56:39.255Z,5.85
2022-08-28T00:59:15.476Z,8.10
2022-08-28T01:01:43.727Z,5.82
2022-08-28T01:04:16.873Z,8.65
2022-08-28T01:06:48.558Z,5.57
2022-08-28T01:09:15.724Z,7.15
2022-08-28T01:11:52.863Z,5.43
2022-08-28T01:14:23.275Z,3.88
2022-08-28T01:16:55.560Z,7.25
2022-08-28T01:19:46.292Z,5.57
2022-08-28T01:22:21.617Z,8.80
2022-08-28T01:24:52.795Z,5.50
2022-08-28T01:27:20.017Z,7.22
2022-08-28T01:29:50.947Z,5.63
2022-08-28T01:32:45.402Z,4.40
2022-08-28T01:35:18.782Z,8.10
2022-08-28T01:37:46.006Z,3.95
2022-08-28T01:40:18.099Z,3.65
2022-08-28T01:42:45.304Z,3.85
2022-08-28T01:45:17.957Z,6.25
2022-08-28T01:47:47.188Z,4.78
2022-08-28T01:50:19.836Z,5.30
2022-08-28T01:52:46.702Z,3.78
2022-08-28T01:55:14.041Z,4.95
2022-08-28T01:57:47.011Z,10.48
2022-08-28T02:00:16.166Z,2.97
2022-08-28T02:02:43.302Z,6.35
2022-08-28T02:05:11.735Z,4.43
2022-08-28T02:07:39.148Z,5.15
2022-08-28T02:10:09.153Z,5.07
2022-08-28T02:12:36.398Z,5.63
2022-08-28T02:15:05.949Z,5.57
2022-08-28T02:17:32.974Z,6.45
2022-08-28T02:20:00.156Z,7.78
2022-08-28T02:22:27.269Z,4.70
2022-08-28T02:24:54.298Z,4.93
2022-08-28T02:27:21.255Z,6.28
2022-08-28T02:29:48.441Z,4.00
2022-08-28T02:32:15.355Z,6.78
2022-08-28T02:34:43.584Z,4.90
2022-08-28T02:37:13.282Z,4.97
2022-08-28T02:39:41.094Z,6.43
2022-08-28T02:42:08.099Z,5.40
2022-08-28T02:44:35.467Z,10.18
2022-08-28T02:47:03.187Z,4.78
2022-08-28T02:49:35.512Z,7.07
2022-08-28T02:52:06.729Z,7.95
2022-08-28T02:54:34.452Z,8.60
2022-08-28T02:57:01.640Z,7.57
2022-08-28T02:59:29.510Z,7.28
2022-08-28T03:01:56.359Z,5.85
2022-08-28T03:04:23.365Z,9.13
2022-08-28T03:06:50.518Z,4.50
2022-08-28T03:09:17.312Z,4.70
2022-08-28T03:11:44.120Z,4.93
2022-08-28T03:14:10.919Z,7.90
2022-08-28T03:16:37.756Z,5.28
2022-08-28T03:19:04.627Z,9.55
2022-08-28T03:21:31.634Z,4.90
2022-08-28T03:23:58.467Z,7.68
2022-08-28T03:26:25.325Z,5.57
2022-08-28T03:28:54.430Z,6.05
2022-08-28T03:31:25.379Z,3.72
2022-08-28T03:33:54.144Z,8.32
2022-08-28T03:36:27.329Z,5.07
2022-08-28T03:38:58.044Z,8.10
2022-08-28T03:41:29.083Z,6.15
2022-08-28T03:43:59.248Z,10.18
2022-08-28T03:46:29.948Z,5.85
2022-08-28T03:48:56.865Z,7.45
2022-08-28T03:51:29.890Z,8.82
2022-08-28T03:53:59.676Z,7.18
2022-08-28T03:56:29.968Z,7.35
2022-08-28T03:59:01.395Z,10.43
2022-08-28T04:01:29.289Z,7.55
2022-08-28T04:03:57.071Z,5.55
2022-08-28T04:06:24.163Z,8.13
2022-08-28T04:08:51.159Z,10.55
2022-08-28T04:11:18.556Z,6.72
2022-08-28T04:13:45.912Z,5.38
2022-08-28T04:16:16.694Z,6.78
2022-08-28T04:18:45.231Z,8.07
2022-08-28T04:21:21.182Z,7.07
2022-08-28T04:23:48.476Z,9.60
2022-08-28T04:26:26.278Z,6.35
2022-08-28T04:28:55.093Z,9.75
2022-08-28T04:31:31.020Z,5.00
2022-08-28T04:34:05.851Z,7.38
2022-08-28T04:36:36.213Z,7.47
2022-08-28T04:39:06.031Z,7.13
2022-08-28T04:41:32.999Z,5.63
2022-08-28T04:43:59.851Z,7.15
2022-08-28T04:46:26.751Z,10.80
2022-08-28T04:48:58.526Z,11.20
2022-08-28T04:51:26.317Z,8.80
2022-08-28T04:53:53.189Z,10.13
2022-08-28T04:56:20.096Z,7.85
2022-08-28T04:58:46.967Z,7.95
2022-08-28T05:01:21.576Z,11.63
2022-08-28T05:03:57.544Z,7.43
2022-08-28T05:06:26.833Z,11.70
2022-08-28T05:08:57.665Z,9.65
2022-08-28T05:11:34.010Z,10.05
2022-08-28T05:14:11.548Z,8.40
2022-08-28T05:16:49.597Z,6.63
2022-08-28T05:19:19.396Z,11.48
2022-08-28T05:21:47.430Z,8.50
2022-08-28T05:24:14.459Z,8.43
2022-08-28T05:26:41.654Z,9.20
2022-08-28T05:29:10.536Z,8.45
2022-08-28T05:31:41.188Z,9.02
2022-08-28T05:34:09.503Z,8.75
2022-08-28T05:36:38.949Z,11.07
2022-08-28T05:39:11.089Z,9.85
2022-08-28T05:41:41.827Z,8.80
2022-08-28T05:44:12.331Z,11.95
2022-08-28T05:46:43.899Z,9.32
2022-08-28T05:49:11.019Z,9.10
2022-08-28T05:51:41.932Z,8.50
2022-08-28T05:54:09.113Z,10.15
2022-08-28T05:56:39.209Z,8.88
2022-08-28T05:59:07.161Z,11.80
2022-08-28T06:01:39.698Z,7.75
2022-08-28T06:04:14.530Z,12.00
2022-08-28T06:06:42.725Z,8.80
2022-08-28T06:09:19.170Z,13.10
2022-08-28T06:11:47.357Z,11.43
2022-08-28T06:14:18.120Z,8.13
2022-08-28T06:16:49.291Z,12.80
2022-08-28T06:19:17.992Z,9.93
2022-08-28T06:21:46.903Z,10.20
2022-08-28T06:24:14.412Z,13.27
2022-08-28T06:26:41.637Z,13.13
2022-08-28T06:29:12.939Z,8.15
2022-08-28T06:31:40.543Z,12.45
2022-08-28T06:34:09.324Z,12.05
2022-08-28T06:36:41.809Z,9.10
2022-08-28T06:39:11.333Z,12.63
2022-08-28T06:41:42.685Z,9.45
2022-08-28T06:44:20.733Z,8.32
2022-08-28T06:46:51.215Z,10.75
2022-08-28T06:49:18.460Z,9.38
2022-08-28T06:51:45.339Z,9.52
2022-08-28T06:54:12.319Z,8.45
2022-08-28T06:56:39.180Z,9.05
2022-08-28T06:59:06.383Z,9.88
2022-08-28T07:01:37.056Z,9.20
2022-08-28T07:04:11.101Z,11.98
2022-08-28T07:06:43.169Z,10.27
2022-08-28T07:09:11.509Z,8.82
2022-08-28T07:11:39.657Z,11.18
2022-08-28T07:14:07.238Z,10.65
2022-08-28T07:16:38.744Z,11.35
2022-08-28T07:19:11.991Z,9.30
2022-08-28T07:21:43.592Z,10.50
2022-08-28T07:24:13.440Z,9.20
2022-08-28T07:26:42.105Z,12.77
2022-08-28T07:29:11.454Z,9.95
2022-08-28T07:31:49.915Z,8.27
2022-08-28T07:34:21.048Z,8.50
2022-08-28T07:36:49.506Z,9.70
2022-08-28T07:39:16.376Z,7.88
2022-08-28T07:41:43.496Z,11.07
2022-08-28T07:44:33.138Z,10.30
2022-08-28T07:47:05.594Z,8.07
2022-08-28T07:49:34.223Z,8.65
2022-08-28T07:52:02.125Z,10.70
2022-08-28T07:54:29.009Z,10.25
2022-08-28T07:56:55.864Z,10.13
2022-08-28T07:59:23.046Z,7.70
2022-08-28T08:01:51.450Z,9.73
2022-08-28T08:04:20.260Z,8.50
2022-08-28T08:06:48.481Z,10.05
2022-08-28T08:09:18.092Z,6.07
2022-08-28T08:11:47.470Z,6.55
2022-08-28T08:14:17.505Z,7.05
2022-08-28T08:16:46.493Z,10.20
2022-08-28T08:19:15.247Z,7.85
2022-08-28T08:21:45.564Z,10.68
2022-08-28T08:24:20.799Z,9.65
2022-08-28T08:27:00.287Z,13.15
2022-08-28T08:29:38.340Z,9.60
2022-08-28T08:32:10.492Z,6.75
2022-08-28T08:34:45.690Z,8.05
2022-08-28T08:37:13.674Z,7.15
2022-08-28T08:39:42.817Z,10.10
2022-08-28T08:42:27.790Z,9.30
2022-08-28T08:44:59.069Z,8.85
2022-08-28T08:47:48.570Z,6.20
2022-08-28T08:50:30.283Z,11.57
2022-08-28T08:53:12.269Z,5.63
2022-08-28T08:55:52.507Z,9.40
2022-08-28T08:58:39.697Z,10.30
2022-08-28T09:01:33.990Z,10.35
2022-08-28T09:04:46.951Z,5.57
2022-08-28T09:07:20.625Z,5.80
2022-08-28T09:09:58.450Z,7.38
2022-08-28T09:12:34.986Z,6.88
2022-08-28T09:15:11.270Z,7.38
2022-08-28T09:17:55.230Z,9.77
2022-08-28T09:20:32.361Z,5.15
2022-08-28T09:23:00.845Z,7.93
2022-08-28T09:25:56.274Z,8.80
2022-08-28T09:28:36.798Z,8.45
2022-08-28T09:31:09.071Z,7.28
2022-08-28T09:33:51.237Z,10.10
2022-08-28T09:36:32.362Z,5.75
2022-08-28T09:39:13.811Z,6.00
2022-08-28T09:42:04.803Z,6.00
2022-08-28T09:44:31.887Z,8.63
2022-08-28T09:46:59.303Z,6.75
2022-08-28T09:49:30.713Z,8.07
2022-08-28T09:52:02.075Z,5.78
2022-08-28T09:54:41.347Z,10.90
2022-08-28T09:57:08.391Z,5.13
2022-08-28T09:59:35.253Z,5.78
2022-08-28T10:02:24.639Z,8.60
2022-08-28T10:05:09.748Z,9.77
2022-08-28T10:08:44.784Z,9.93
2022-08-28T10:11:31.724Z,7.97
2022-08-28T10:14:57.630Z,8.05
2022-08-28T10:18:27.819Z,6.10
2022-08-28T10:21:04.022Z,4.90
2022-08-28T10:23:51.799Z,9.18
2022-08-28T10:26:53.941Z,8.73
2022-08-28T10:29:41.015Z,4.32
2022-08-28T10:32:10.791Z,7.38
2022-08-28T10:34:55.729Z,5.00
2022-08-28T10:38:02.595Z,6.53
2022-08-28T10:40:48.125Z,6.60
2022-08-28T10:43:32.305Z,8.35
2022-08-28T10:46:05.386Z,4.65
2022-08-28T10:49:15.233Z,8.32
2022-08-28T10:51:46.852Z,5.28
2022-08-28T10:54:34.480Z,6.55
2022-08-28T10:57:31.011Z,6.65
2022-08-28T11:00:03.017Z,6.85
2022-08-28T11:02:31.070Z,7.32
2022-08-28T11:04:58.793Z,6.28
2022-08-28T11:07:45.211Z,5.97
2022-08-28T11:10:37.483Z,6.45
2022-08-28T11:13:08.450Z,6.43
2022-08-28T11:15:37.341Z,6.43
2022-08-28T11:18:42.428Z,4.05
2022-08-28T11:21:28.932Z,4.82
2022-08-28T11:24:23.926Z,6.35
2022-08-28T11:27:31.063Z,4.65
2022-08-28T11:30:10.827Z,4.05
2022-08-28T11:32:51.707Z,4.40
2022-08-28T11:35:30.688Z,6.10
2022-08-28T11:37:58.665Z,4.50
2022-08-28T11:40:28.565Z,3.15
2022-08-28T11:43:16.960Z,4.40
2022-08-28T11:45:46.508Z,4.55
2022-08-28T11:48:39.364Z,5.47
2022-08-28T11:51:18.313Z,5.53
2022-08-28T11:54:09.368Z,3.78
2022-08-28T11:57:01.093Z,6.53
2022-08-28T11:59:54.947Z,5.93
2022-08-28T12:02:40.158Z,5.38
2022-08-28T12:05:15.901Z,4.32
2022-08-28T12:07:45.403Z,6.45
2022-08-28T12:10:24.623Z,5.97
2022-08-28T12:13:05.080Z,5.57
2022-08-28T12:15:32.215Z,7.88
2022-08-28T12:18:01.093Z,6.72
2022-08-28T12:20:41.440Z,3.33
2022-08-28T12:23:36.589Z,5.05
2022-08-28T12:26:29.977Z,4.10
2022-08-28T12:29:37.558Z,4.57
2022-08-28T12:32:41.420Z,4.63
2022-08-28T12:35:37.290Z,4.97
2022-08-28T12:38:07.795Z,5.43
2022-08-28T12:40:37.647Z,5.38
2022-08-28T12:43:10.022Z,4.65
2022-08-28T12:45:53.837Z,5.63
2022-08-28T12:48:32.885Z,6.10
2022-08-28T12:51:08.064Z,4.60
2022-08-28T12:53:41.957Z,5.15
2022-08-28T12:56:11.774Z,4.72
2022-08-28T12:58:41.447Z,8.00
2022-08-28T13:01:20.532Z,4.72
2022-08-28T13:04:25.331Z,3.85
2022-08-28T13:07:10.998Z,4.13
2022-08-28T13:09:44.798Z,3.65
2022-08-28T13:12:54.765Z,4.30
2022-08-28T13:15:48.863Z,6.40
2022-08-28T13:18:52.055Z,3.55
2022-08-28T13:21:30.883Z,3.58
2022-08-28T13:24:21.366Z,4.63
2022-08-28T13:27:08.871Z,4.05
2022-08-28T13:29:38.617Z,4.18
2022-08-28T13:32:17.497Z,4.47
2022-08-28T13:35:21.824Z,4.30
2022-08-28T13:37:56.619Z,4.50
2022-08-28T13:40:56.760Z,5.10
2022-08-28T13:43:21.211Z,3.40
2022-08-28T13:45:49.840Z,2.30
2022-08-28T13:48:23.332Z,3.03
2022-08-28T13:50:58.516Z,4.20
2022-08-28T13:53:25.787Z,5.47
2022-08-28T13:55:52.671Z,3.20
2022-08-28T13:58:19.747Z,4.07
2022-08-28T14:00:50.612Z,2.45
2022-08-28T14:03:37.504Z,8.35
2022-08-28T14:06:11.449Z,5.53
2022-08-28T14:08:40.832Z,5.05
2022-08-28T14:11:08.811Z,3.47
2022-08-28T14:13:40.710Z,3.58
2022-08-28T14:16:16.692Z,4.40
2022-08-28T14:18:43.750Z,5.05
2022-08-28T14:21:10.589Z,3.42
2022-08-28T14:23:37.379Z,3.85
2022-08-28T14:26:05.757Z,4.18
2022-08-28T14:28:32.644Z,5.63
2022-08-28T14:30:59.491Z,2.53
2022-08-28T14:33:26.654Z,3.28
2022-08-28T14:35:54.640Z,2.80
2022-08-28T14:38:21.476Z,2.65
2022-08-28T14:40:48.396Z,2.97
2022-08-28T14:43:15.569Z,3.90
2022-08-28T14:45:48.455Z,5.03
2022-08-28T14:48:18.240Z,4.65
2022-08-28T14:50:48.244Z,5.80
2022-08-28T14:53:16.956Z,4.30
2022-08-28T14:55:48.308Z,3.20
2022-08-28T14:58:18.169Z,3.55
2022-08-28T15:00:49.645Z,3.03
2022-08-28T15:03:18.646Z,5.07
2022-08-28T15:05:46.493Z,3.20
2022-08-28T15:08:17.462Z,4.35
2022-08-28T15:10:45.239Z,4.60
2022-08-28T15:13:12.696Z,2.95
2022-08-28T15:15:42.158Z,3.78
2022-08-28T15:18:10.950Z,2.67
2022-08-28T15:20:41.021Z,2.28
2022-08-28T15:23:08.629Z,3.28
2022-08-28T15:25:35.484Z,5.05
2022-08-28T15:28:02.684Z,4.65
2022-08-28T15:30:29.671Z,2.55
2022-08-28T15:32:56.675Z,3.85
2022-08-28T15:35:23.680Z,4.13
2022-08-28T15:37:51.431Z,3.40
2022-08-28T15:40:36.735Z,3.42
2022-08-28T15:43:03.651Z,3.55
2022-08-28T15:45:30.558Z,4.20
2022-08-28T15:47:58.714Z,2.35
2022-08-28T15:50:25.552Z,3.45
2022-08-28T15:52:53.544Z,5.20
2022-08-28T15:55:20.421Z,5.70
2022-08-28T15:57:47.277Z,3.83
2022-08-28T16:00:14.938Z,3.10
2022-08-28T16:02:42.900Z,3.60
2022-08-28T16:05:10.117Z,3.15
2022-08-28T16:07:36.982Z,2.58
2022-08-28T16:10:07.121Z,3.15
2022-08-28T16:12:35.662Z,4.03
2022-08-28T16:15:02.504Z,5.57
2022-08-28T16:17:29.334Z,2.03
2022-08-28T16:19:56.137Z,3.92
2022-08-28T16:22:23.276Z,4.03
2022-08-28T16:24:51.034Z,3.63
2022-08-28T16:27:18.180Z,1.75
2022-08-28T16:29:45.903Z,4.75
2022-08-28T16:32:12.994Z,4.40
2022-08-28T16:34:40.082Z,2.70
2022-08-28T16:37:07.949Z,4.78
2022-08-28T16:39:36.327Z,4.13
2022-08-28T16:42:04.150Z,5.72
2022-08-28T16:44:31.093Z,4.30
2022-08-28T16:46:58.040Z,4.45
2022-08-28T16:49:25.021Z,5.13
2022-08-28T16:51:52.057Z,5.63
2022-08-28T16:54:20.805Z,4.05
2022-08-28T16:56:48.008Z,4.90
2022-08-28T16:59:20.505Z,5.50
2022-08-28T17:01:53.727Z,4.97
2022-08-28T17:04:21.962Z,2.85
2022-08-28T17:06:48.822Z,2.85
2022-08-28T17:09:15.655Z,3.17
2022-08-28T17:11:42.521Z,5.72
2022-08-28T17:14:11.936Z,3.65
2022-08-28T17:16:39.345Z,5.03
2022-08-28T17:19:06.259Z,4.65
2022-08-28T17:21:51.534Z,5.90
2022-08-28T17:24:18.729Z,3.10
2022-08-28T17:26:45.663Z,4.55
2022-08-28T17:29:12.677Z,3.28
2022-08-28T17:31:40.018Z,6.70
2022-08-28T17:34:10.512Z,3.90
2022-08-28T17:36:40.476Z,5.85
2022-08-28T17:39:13.128Z,3.47
2022-08-28T17:41:41.276Z,4.10
2022-08-28T17:44:09.106Z,5.18
2022-08-28T17:46:37.904Z,5.15
2022-08-28T17:49:07.675Z,2.30
2022-08-28T17:51:43.277Z,4.70
2022-08-28T17:54:18.146Z,2.95
2022-08-28T17:56:45.518Z,4.43
2022-08-28T17:59:14.406Z,6.32
2022-08-28T18:01:42.922Z,1.45
2022-08-28T18:04:10.758Z,3.95
2022-08-28T18:06:38.041Z,3.38
2022-08-28T18:09:07.854Z,3.58
2022-08-28T18:11:35.052Z,2.50
2022-08-28T18:14:02.247Z,3.78
2022-08-28T18:16:33.157Z,3.35
2022-08-28T18:19:02.320Z,4.18
2022-08-28T18:21:29.396Z,3.25
2022-08-28T18:23:57.228Z,3.65
2022-08-28T18:26:24.530Z,3.33
2022-08-28T18:28:52.280Z,4.63
2022-08-28T18:31:19.627Z,4.35
2022-08-28T18:33:46.948Z,4.57
2022-08-28T18:36:15.983Z,6.30
2022-08-28T18:38:44.656Z,2.38
2022-08-28T18:41:12.133Z,2.78
2022-08-28T18:43:39.175Z,6.50
2022-08-28T18:46:09.198Z,3.30
2022-08-28T18:48:37.955Z,3.38
2022-08-28T18:51:11.230Z,2.38
2022-08-28T18:53:38.913Z,5.43
2022-08-28T18:56:09.526Z,4.18
2022-08-28T18:58:43.239Z,2.88
2022-08-28T19:01:10.543Z,3.92
2022-08-28T19:03:37.768Z,2.47
2022-08-28T19:06:06.226Z,6.47
2022-08-28T19:08:35.277Z,3.60
2022-08-28T19:11:11.182Z,4.68
2022-08-28T19:13:38.834Z,3.92
2022-08-28T19:16:06.364Z,4.72
2022-08-28T19:18:34.161Z,3.15
2022-08-28T19:21:11.019Z,3.88
2022-08-28T19:23:44.581Z,3.15
2022-08-28T19:26:22.793Z,4.80
2022-08-28T19:28:50.573Z,3.42
2022-08-28T19:31:17.879Z,4.05
2022-08-28T19:33:46.790Z,5.57
2022-08-28T19:36:14.179Z,3.80
2022-08-28T19:38:41.808Z,4.32
2022-08-28T19:41:10.835Z,3.42
2022-08-28T19:43:43.394Z,5.07
2022-08-28T19:46:19.809Z,2.20
2022-08-28T19:48:51.964Z,6.38
2022-08-28T19:51:23.654Z,5.50
2022-08-28T19:53:58.982Z,2.28
2022-08-28T19:56:32.264Z,3.88
2022-08-28T19:59:02.975Z,4.47
2022-08-28T20:01:33.518Z,5.70
2022-08-28T20:04:00.849Z,3.58
2022-08-28T20:06:32.195Z,5.25
2022-08-28T20:09:00.241Z,5.30
2022-08-28T20:11:30.753Z,4.00
2022-08-28T20:14:05.103Z,4.35
2022-08-28T20:16:39.019Z,3.88
2022-08-28T20:19:10.273Z,3.80
2022-08-28T20:21:41.331Z,5.03
2022-08-28T20:24:12.946Z,3.97
2022-08-28T20:26:40.174Z,4.38
2022-08-28T20:29:09.608Z,4.38
2022-08-28T20:31:41.107Z,4.85
2022-08-28T20:34:10.528Z,3.72
2022-08-28T20:36:38.073Z,6.88
2022-08-28T20:39:09.061Z,3.53
2022-08-28T20:41:38.963Z,3.45
2022-08-28T20:44:07.994Z,4.13
2022-08-28T20:46:40.529Z,3.22
2022-08-28T20:49:11.666Z,4.68
2022-08-28T20:51:52.737Z,4.90
2022-08-28T20:54:21.909Z,3.75
2022-08-28T20:56:50.906Z,3.53
2022-08-28T20:59:19.390Z,3.97
2022-08-28T21:01:46.296Z,5.53
2022-08-28T21:04:13.159Z,7.35
2022-08-28T21:06:39.987Z,3.03
2022-08-28T21:09:06.862Z,3.50
2022-08-28T21:11:33.927Z,3.38
2022-08-28T21:14:01.213Z,2.65
2022-08-28T21:16:28.163Z,3.40
2022-08-28T21:19:14.781Z,1.90
2022-08-28T21:21:42.585Z,4.70
2022-08-28T21:24:13.135Z,5.15
2022-08-28T21:26:43.219Z,4.75
2022-08-28T21:29:11.839Z,4.15
2022-08-28T21:31:45.058Z,4.75
2022-08-28T21:34:12.474Z,6.47
2022-08-28T21:36:49.497Z,3.97
2022-08-28T21:39:20.631Z,4.30
2022-08-28T21:41:48.989Z,5.30
2022-08-28T21:44:16.102Z,3.58
2022-08-28T21:46:43.324Z,4.32
2022-08-28T21:49:10.333Z,3.47
2022-08-28T21:51:37.151Z,6.15
2022-08-28T21:54:04.146Z,3.83
2022-08-28T21:56:31.330Z,4.22
2022-08-28T21:58:58.548Z,3.42
2022-08-28T22:01:26.685Z,5.63
2022-08-28T22:03:55.198Z,4.13
2022-08-28T22:06:25.235Z,3.20
2022-08-28T22:08:54.069Z,6.50
2022-08-28T22:11:24.883Z,5.43
2022-08-28T22:13:54.368Z,5.78
2022-08-28T22:16:24.584Z,3.72
2022-08-28T22:18:52.526Z,5.10
2022-08-28T22:21:45.197Z,4.13
2022-08-28T22:24:13.305Z,6.18
2022-08-28T22:26:41.985Z,3.83
2022-08-28T22:29:10.832Z,4.03
2022-08-28T22:31:38.308Z,3.97
2022-08-28T22:34:13.140Z,4.72
2022-08-28T22:36:40.104Z,3.65
2022-08-28T22:39:07.172Z,5.80
2022-08-28T22:41:37.406Z,6.18
2022-08-28T22:44:04.664Z,5.82
2022-08-28T22:46:31.462Z,3.10
2022-08-28T22:48:59.241Z,4.57
2022-08-28T22:51:26.042Z,4.75
2022-08-28T22:53:52.960Z,5.55
2022-08-28T22:56:20.305Z,5.30
2022-08-28T22:58:47.194Z,4.15
2022-08-28T23:01:24.320Z,5.80
2022-08-28T23:03:52.078Z,4.75
2022-08-28T23:06:21.384Z,9.27
2022-08-28T23:08:48.228Z,3.45
2022-08-28T23:11:15.336Z,6.00
2022-08-28T23:13:42.226Z,4.70
2022-08-28T23:16:09.727Z,6.63
2022-08-28T23:18:57.532Z,6.45
2022-08-28T23:21:28.271Z,3.35
2022-08-28T23:23:56.174Z,5.20
2022-08-28T23:26:24.696Z,4.63
2022-08-28T23:28:52.527Z,4.68
2022-08-28T23:31:19.497Z,4.55
2022-08-28T23:33:46.566Z,5.95
2022-08-28T23:36:14.824Z,3.50
2022-08-28T23:38:43.356Z,5.18
2022-08-28T23:41:11.735Z,5.47
2022-08-28T23:43:40.812Z,6.05
2022-08-28T23:46:09.376Z,5.20
2022-08-28T23:48:43.902Z,5.88
2022-08-28T23:51:14.461Z,4.72
2022-08-28T23:53:43.439Z,5.15
2022-08-28T23:56:11.484Z,4.85
2022-08-28T23:58:40.270Z,5.50
